Horton, Texas
Current Conditions -  °F | °C
As of 12:15 PM on Monday 22 Dec 2014 (Local Time) from KASL Reporting Station
Overcast Overcast  
Wind Chill: 66°   Ceiling: 1300
Heat Index: 66°   Visibility: 10mi
Dew Point: 60°   Wind: 8mph
Humidity: 83%   Direction: 180°S
Pressure: 29.62"   Gusts: NA
Location:  32.2219°N, 94.1501°W
Report Text: KASL 221815Z AUTO 18007KT 10SM BKN013 BKN017 OVC023 19/16 A2962 RMK AO1 T01870157
Loading
Personal Weather Stations






























Interactive Weather Map New forecast layout! Learn more

10-Day Weather Forecast

Advertisements
Track Severe Weather on mobile